sensor_id;sensor_type;location;lat;lon;timestamp;P1;P2;P0
72908;PMS5003;61051;62.624;17.950;2023-07-31T00:00:58;5;5;
72908;PMS5003;61051;62.624;17.950;2023-07-31T00:03:26;6;6;
72908;PMS5003;61051;62.624;17.950;2023-07-31T00:05:54;7;7;
72908;PMS5003;61051;62.624;17.950;2023-07-31T00:08:22;9;9;
72908;PMS5003;61051;62.624;17.950;2023-07-31T00:10:51;6;6;
72908;PMS5003;61051;62.624;17.950;2023-07-31T00:13:22;5;5;
72908;PMS5003;61051;62.624;17.950;2023-07-31T00:15:50;5;5;
72908;PMS5003;61051;62.624;17.950;2023-07-31T00:18:20;6;6;
72908;PMS5003;61051;62.624;17.950;2023-07-31T00:20:48;6;6;
72908;PMS5003;61051;62.624;17.950;2023-07-31T00:23:18;6;6;
72908;PMS5003;61051;62.624;17.950;2023-07-31T00:25:46;8;8;
72908;PMS5003;61051;62.624;17.950;2023-07-31T00:28:14;8;7;
72908;PMS5003;61051;62.624;17.950;2023-07-31T00:30:42;7;7;
72908;PMS5003;61051;62.624;17.950;2023-07-31T00:33:11;8;7;
72908;PMS5003;61051;62.624;17.950;2023-07-31T00:35:39;7;7;
72908;PMS5003;61051;62.624;17.950;2023-07-31T00:38:07;7;7;
72908;PMS5003;61051;62.624;17.950;2023-07-31T00:40:35;7;5;
72908;PMS5003;61051;62.624;17.950;2023-07-31T00:43:03;6;6;
72908;PMS5003;61051;62.624;17.950;2023-07-31T00:45:31;8;7;
72908;PMS5003;61051;62.624;17.950;2023-07-31T00:48:01;6;6;
72908;PMS5003;61051;62.624;17.950;2023-07-31T00:50:31;5;5;
72908;PMS5003;61051;62.624;17.950;2023-07-31T00:53:01;6;5;
72908;PMS5003;61051;62.624;17.950;2023-07-31T00:55:29;7;7;
72908;PMS5003;61051;62.624;17.950;2023-07-31T00:57:59;8;6;
72908;PMS5003;61051;62.624;17.950;2023-07-31T01:00:27;5;5;
72908;PMS5003;61051;62.624;17.950;2023-07-31T01:02:55;4;4;
72908;PMS5003;61051;62.624;17.950;2023-07-31T01:05:25;6;6;
72908;PMS5003;61051;62.624;17.950;2023-07-31T01:08:00;5;3;
72908;PMS5003;61051;62.624;17.950;2023-07-31T01:10:35;6;4;
72908;PMS5003;61051;62.624;17.950;2023-07-31T01:13:12;7;6;
72908;PMS5003;61051;62.624;17.950;2023-07-31T01:15:42;5;4;
72908;PMS5003;61051;62.624;17.950;2023-07-31T01:18:10;6;5;
72908;PMS5003;61051;62.624;17.950;2023-07-31T01:20:38;6;6;
72908;PMS5003;61051;62.624;17.950;2023-07-31T01:23:37;6;6;
72908;PMS5003;61051;62.624;17.950;2023-07-31T01:26:20;7;6;
72908;PMS5003;61051;62.624;17.950;2023-07-31T01:28:53;7;7;
72908;PMS5003;61051;62.624;17.950;2023-07-31T01:31:29;4;4;
72908;PMS5003;61051;62.624;17.950;2023-07-31T01:33:59;7;7;
72908;PMS5003;61051;62.624;17.950;2023-07-31T01:36:30;6;5;
72908;PMS5003;61051;62.624;17.950;2023-07-31T01:39:00;4;4;
72908;PMS5003;61051;62.624;17.950;2023-07-31T01:41:30;7;7;
72908;PMS5003;61051;62.624;17.950;2023-07-31T01:43:58;3;3;
72908;PMS5003;61051;62.624;17.950;2023-07-31T01:46:26;8;8;
72908;PMS5003;61051;62.624;17.950;2023-07-31T01:48:54;5;5;
72908;PMS5003;61051;62.624;17.950;2023-07-31T01:51:24;5;5;
72908;PMS5003;61051;62.624;17.950;2023-07-31T01:53:53;4;4;
72908;PMS5003;61051;62.624;17.950;2023-07-31T01:56:22;6;6;
72908;PMS5003;61051;62.624;17.950;2023-07-31T01:58:50;6;6;
72908;PMS5003;61051;62.624;17.950;2023-07-31T02:01:18;7;7;
72908;PMS5003;61051;62.624;17.950;2023-07-31T02:03:46;5;5;
72908;PMS5003;61051;62.624;17.950;2023-07-31T02:06:14;7;7;
72908;PMS5003;61051;62.624;17.950;2023-07-31T02:08:43;7;7;
72908;PMS5003;61051;62.624;17.950;2023-07-31T02:11:11;6;6;
72908;PMS5003;61051;62.624;17.950;2023-07-31T02:13:39;9;7;
72908;PMS5003;61051;62.624;17.950;2023-07-31T02:16:07;5;5;
72908;PMS5003;61051;62.624;17.950;2023-07-31T02:18:35;6;6;
72908;PMS5003;61051;62.624;17.950;2023-07-31T02:21:04;6;6;
72908;PMS5003;61051;62.624;17.950;2023-07-31T02:23:32;6;6;
72908;PMS5003;61051;62.624;17.950;2023-07-31T02:26:00;9;7;
72908;PMS5003;61051;62.624;17.950;2023-07-31T02:28:28;8;7;
72908;PMS5003;61051;62.624;17.950;2023-07-31T02:30:58;8;6;
72908;PMS5003;61051;62.624;17.950;2023-07-31T02:33:26;6;6;
72908;PMS5003;61051;62.624;17.950;2023-07-31T02:35:55;4;4;
72908;PMS5003;61051;62.624;17.950;2023-07-31T02:38:23;9;9;
72908;PMS5003;61051;62.624;17.950;2023-07-31T02:40:52;6;6;
72908;PMS5003;61051;62.624;17.950;2023-07-31T02:43:21;8;6;
72908;PMS5003;61051;62.624;17.950;2023-07-31T02:45:51;7;6;
72908;PMS5003;61051;62.624;17.950;2023-07-31T02:48:21;8;8;
72908;PMS5003;61051;62.624;17.950;2023-07-31T02:50:49;8;8;
72908;PMS5003;61051;62.624;17.950;2023-07-31T02:53:17;7;7;
72908;PMS5003;61051;62.624;17.950;2023-07-31T02:55:45;8;6;
72908;PMS5003;61051;62.624;17.950;2023-07-31T02:58:13;7;7;
72908;PMS5003;61051;62.624;17.950;2023-07-31T03:00:42;9;8;
72908;PMS5003;61051;62.624;17.950;2023-07-31T03:03:10;8;6;
72908;PMS5003;61051;62.624;17.950;2023-07-31T03:05:38;8;8;
72908;PMS5003;61051;62.624;17.950;2023-07-31T03:08:06;7;7;
72908;PMS5003;61051;62.624;17.950;2023-07-31T03:10:34;5;5;
72908;PMS5003;61051;62.624;17.950;2023-07-31T03:13:02;7;7;
72908;PMS5003;61051;62.624;17.950;2023-07-31T03:15:30;7;7;
72908;PMS5003;61051;62.624;17.950;2023-07-31T03:17:59;7;6;
72908;PMS5003;61051;62.624;17.950;2023-07-31T03:20:27;10;6;
72908;PMS5003;61051;62.624;17.950;2023-07-31T03:22:56;5;5;
72908;PMS5003;61051;62.624;17.950;2023-07-31T03:25:24;8;8;
72908;PMS5003;61051;62.624;17.950;2023-07-31T03:27:53;5;5;
72908;PMS5003;61051;62.624;17.950;2023-07-31T03:30:22;6;6;
72908;PMS5003;61051;62.624;17.950;2023-07-31T03:32:51;8;8;
72908;PMS5003;61051;62.624;17.950;2023-07-31T03:35:21;7;7;
72908;PMS5003;61051;62.624;17.950;2023-07-31T03:37:49;5;5;
72908;PMS5003;61051;62.624;17.950;2023-07-31T03:40:17;7;6;
72908;PMS5003;61051;62.624;17.950;2023-07-31T03:42:45;6;6;
72908;PMS5003;61051;62.624;17.950;2023-07-31T03:45:13;6;6;
72908;PMS5003;61051;62.624;17.950;2023-07-31T03:47:41;8;7;
72908;PMS5003;61051;62.624;17.950;2023-07-31T03:50:09;7;7;
72908;PMS5003;61051;62.624;17.950;2023-07-31T03:52:38;7;7;
72908;PMS5003;61051;62.624;17.950;2023-07-31T03:55:06;6;6;
72908;PMS5003;61051;62.624;17.950;2023-07-31T03:57:36;6;6;
72908;PMS5003;61051;62.624;17.950;2023-07-31T04:08:32;6;6;
72908;PMS5003;61051;62.624;17.950;2023-07-31T04:11:02;5;5;
72908;PMS5003;61051;62.624;17.950;2023-07-31T04:13:30;5;5;
72908;PMS5003;61051;62.624;17.950;2023-07-31T04:15:59;8;8;
72908;PMS5003;61051;62.624;17.950;2023-07-31T04:18:27;6;6;
72908;PMS5003;61051;62.624;17.950;2023-07-31T04:20:56;5;5;
72908;PMS5003;61051;62.624;17.950;2023-07-31T04:23:24;8;8;
72908;PMS5003;61051;62.624;17.950;2023-07-31T04:25:53;8;7;
72908;PMS5003;61051;62.624;17.950;2023-07-31T04:28:22;7;7;
72908;PMS5003;61051;62.624;17.950;2023-07-31T04:30:50;6;6;
72908;PMS5003;61051;62.624;17.950;2023-07-31T04:33:18;6;6;
72908;PMS5003;61051;62.624;17.950;2023-07-31T04:35:49;8;7;
72908;PMS5003;61051;62.624;17.950;2023-07-31T04:38:19;6;6;
72908;PMS5003;61051;62.624;17.950;2023-07-31T04:40:48;6;6;
72908;PMS5003;61051;62.624;17.950;2023-07-31T04:43:16;6;6;
72908;PMS5003;61051;62.624;17.950;2023-07-31T04:45:45;6;6;
72908;PMS5003;61051;62.624;17.950;2023-07-31T04:48:13;5;5;
72908;PMS5003;61051;62.624;17.950;2023-07-31T04:50:41;6;6;
72908;PMS5003;61051;62.624;17.950;2023-07-31T04:53:09;6;6;
72908;PMS5003;61051;62.624;17.950;2023-07-31T04:55:38;5;5;
72908;PMS5003;61051;62.624;17.950;2023-07-31T04:58:07;7;7;
72908;PMS5003;61051;62.624;17.950;2023-07-31T05:00:35;7;7;
72908;PMS5003;61051;62.624;17.950;2023-07-31T05:03:04;8;7;
72908;PMS5003;61051;62.624;17.950;2023-07-31T05:05:33;6;6;
72908;PMS5003;61051;62.624;17.950;2023-07-31T05:08:03;8;7;
72908;PMS5003;61051;62.624;17.950;2023-07-31T05:10:32;8;5;
72908;PMS5003;61051;62.624;17.950;2023-07-31T05:13:01;7;7;
72908;PMS5003;61051;62.624;17.950;2023-07-31T05:15:29;6;6;
72908;PMS5003;61051;62.624;17.950;2023-07-31T05:17:57;6;5;
72908;PMS5003;61051;62.624;17.950;2023-07-31T05:20:25;6;6;
72908;PMS5003;61051;62.624;17.950;2023-07-31T05:22:53;10;7;
72908;PMS5003;61051;62.624;17.950;2023-07-31T05:25:21;7;7;
72908;PMS5003;61051;62.624;17.950;2023-07-31T05:27:49;8;7;
72908;PMS5003;61051;62.624;17.950;2023-07-31T05:30:18;7;7;
72908;PMS5003;61051;62.624;17.950;2023-07-31T05:32:46;7;7;
72908;PMS5003;61051;62.624;17.950;2023-07-31T05:35:14;8;8;
72908;PMS5003;61051;62.624;17.950;2023-07-31T05:37:42;8;7;
72908;PMS5003;61051;62.624;17.950;2023-07-31T05:40:10;6;5;
72908;PMS5003;61051;62.624;17.950;2023-07-31T05:42:40;5;5;
72908;PMS5003;61051;62.624;17.950;2023-07-31T05:45:08;6;6;
72908;PMS5003;61051;62.624;17.950;2023-07-31T05:47:38;4;4;
72908;PMS5003;61051;62.624;17.950;2023-07-31T05:50:06;6;6;
72908;PMS5003;61051;62.624;17.950;2023-07-31T05:52:36;12;6;
72908;PMS5003;61051;62.624;17.950;2023-07-31T05:55:05;3;3;
72908;PMS5003;61051;62.624;17.950;2023-07-31T05:57:34;7;7;
72908;PMS5003;61051;62.624;17.950;2023-07-31T06:00:02;5;5;
72908;PMS5003;61051;62.624;17.950;2023-07-31T06:02:32;8;8;
72908;PMS5003;61051;62.624;17.950;2023-07-31T06:05:00;7;7;
72908;PMS5003;61051;62.624;17.950;2023-07-31T06:07:28;8;8;
72908;PMS5003;61051;62.624;17.950;2023-07-31T06:09:56;8;7;
72908;PMS5003;61051;62.624;17.950;2023-07-31T06:12:24;8;8;
72908;PMS5003;61051;62.624;17.950;2023-07-31T06:14:54;15;9;
72908;PMS5003;61051;62.624;17.950;2023-07-31T06:17:22;8;8;
72908;PMS5003;61051;62.624;17.950;2023-07-31T06:19:50;7;7;
72908;PMS5003;61051;62.624;17.950;2023-07-31T06:22:20;10;9;
72908;PMS5003;61051;62.624;17.950;2023-07-31T06:24:48;8;8;
72908;PMS5003;61051;62.624;17.950;2023-07-31T06:27:16;11;8;
72908;PMS5003;61051;62.624;17.950;2023-07-31T06:29:44;11;11;
72908;PMS5003;61051;62.624;17.950;2023-07-31T06:32:12;9;7;
72908;PMS5003;61051;62.624;17.950;2023-07-31T06:34:41;14;9;
72908;PMS5003;61051;62.624;17.950;2023-07-31T06:37:09;9;9;
72908;PMS5003;61051;62.624;17.950;2023-07-31T06:39:37;7;7;
72908;PMS5003;61051;62.624;17.950;2023-07-31T06:42:05;8;8;
72908;PMS5003;61051;62.624;17.950;2023-07-31T06:44:35;8;8;
72908;PMS5003;61051;62.624;17.950;2023-07-31T06:47:03;8;8;
72908;PMS5003;61051;62.624;17.950;2023-07-31T06:49:33;7;7;
72908;PMS5003;61051;62.624;17.950;2023-07-31T06:52:01;9;9;
72908;PMS5003;61051;62.624;17.950;2023-07-31T06:54:29;6;6;
72908;PMS5003;61051;62.624;17.950;2023-07-31T06:56:57;13;9;
72908;PMS5003;61051;62.624;17.950;2023-07-31T06:59:26;10;7;
72908;PMS5003;61051;62.624;17.950;2023-07-31T07:01:55;9;9;
72908;PMS5003;61051;62.624;17.950;2023-07-31T07:04:23;10;7;
72908;PMS5003;61051;62.624;17.950;2023-07-31T07:06:51;11;9;
72908;PMS5003;61051;62.624;17.950;2023-07-31T07:09:20;7;7;
72908;PMS5003;61051;62.624;17.950;2023-07-31T07:11:48;7;7;
72908;PMS5003;61051;62.624;17.950;2023-07-31T07:14:16;8;8;
72908;PMS5003;61051;62.624;17.950;2023-07-31T07:16:44;11;11;
72908;PMS5003;61051;62.624;17.950;2023-07-31T07:19:12;9;7;
72908;PMS5003;61051;62.624;17.950;2023-07-31T07:21:41;10;8;
72908;PMS5003;61051;62.624;17.950;2023-07-31T07:24:10;9;9;
72908;PMS5003;61051;62.624;17.950;2023-07-31T07:26:39;9;9;
72908;PMS5003;61051;62.624;17.950;2023-07-31T07:29:07;8;8;
72908;PMS5003;61051;62.624;17.950;2023-07-31T07:31:35;7;6;
72908;PMS5003;61051;62.624;17.950;2023-07-31T07:34:03;8;6;
72908;PMS5003;61051;62.624;17.950;2023-07-31T07:36:31;9;8;
72908;PMS5003;61051;62.624;17.950;2023-07-31T07:39:00;9;7;
72908;PMS5003;61051;62.624;17.950;2023-07-31T07:41:28;12;9;
72908;PMS5003;61051;62.624;17.950;2023-07-31T07:43:56;10;9;
72908;PMS5003;61051;62.624;17.950;2023-07-31T07:46:24;6;6;
72908;PMS5003;61051;62.624;17.950;2023-07-31T07:48:53;3;3;
72908;PMS5003;61051;62.624;17.950;2023-07-31T07:51:21;7;7;
72908;PMS5003;61051;62.624;17.950;2023-07-31T07:53:49;10;7;
72908;PMS5003;61051;62.624;17.950;2023-07-31T07:56:17;6;6;
72908;PMS5003;61051;62.624;17.950;2023-07-31T07:58:48;7;6;
72908;PMS5003;61051;62.624;17.950;2023-07-31T08:01:17;10;8;
72908;PMS5003;61051;62.624;17.950;2023-07-31T08:03:47;12;6;
72908;PMS5003;61051;62.624;17.950;2023-07-31T08:06:16;10;7;
72908;PMS5003;61051;62.624;17.950;2023-07-31T08:08:45;9;6;
72908;PMS5003;61051;62.624;17.950;2023-07-31T08:11:13;8;8;
72908;PMS5003;61051;62.624;17.950;2023-07-31T08:13:42;13;7;
72908;PMS5003;61051;62.624;17.950;2023-07-31T08:16:10;8;7;
72908;PMS5003;61051;62.624;17.950;2023-07-31T08:18:38;6;6;
72908;PMS5003;61051;62.624;17.950;2023-07-31T08:21:07;5;5;
72908;PMS5003;61051;62.624;17.950;2023-07-31T08:23:35;7;7;
72908;PMS5003;61051;62.624;17.950;2023-07-31T08:26:04;4;4;
72908;PMS5003;61051;62.624;17.950;2023-07-31T08:28:32;5;3;
72908;PMS5003;61051;62.624;17.950;2023-07-31T08:31:00;4;4;
72908;PMS5003;61051;62.624;17.950;2023-07-31T08:33:28;4;3;
72908;PMS5003;61051;62.624;17.950;2023-07-31T08:35:56;4;2;
72908;PMS5003;61051;62.624;17.950;2023-07-31T08:38:25;4;3;
72908;PMS5003;61051;62.624;17.950;2023-07-31T08:40:54;3;3;
72908;PMS5003;61051;62.624;17.950;2023-07-31T08:43:22;4;4;
72908;PMS5003;61051;62.624;17.950;2023-07-31T08:45:54;5;5;
72908;PMS5003;61051;62.624;17.950;2023-07-31T08:48:24;4;4;
72908;PMS5003;61051;62.624;17.950;2023-07-31T08:50:54;2;2;
72908;PMS5003;61051;62.624;17.950;2023-07-31T08:53:22;3;3;
72908;PMS5003;61051;62.624;17.950;2023-07-31T08:55:50;5;5;
72908;PMS5003;61051;62.624;17.950;2023-07-31T08:58:22;6;5;
72908;PMS5003;61051;62.624;17.950;2023-07-31T09:00:51;5;3;
72908;PMS5003;61051;62.624;17.950;2023-07-31T09:03:21;5;5;
72908;PMS5003;61051;62.624;17.950;2023-07-31T09:05:53;4;4;
72908;PMS5003;61051;62.624;17.950;2023-07-31T09:08:24;3;3;
72908;PMS5003;61051;62.624;17.950;2023-07-31T09:10:59;4;3;
72908;PMS5003;61051;62.624;17.950;2023-07-31T09:13:28;5;5;
72908;PMS5003;61051;62.624;17.950;2023-07-31T09:15:57;3;3;
72908;PMS5003;61051;62.624;17.950;2023-07-31T09:18:27;4;4;
72908;PMS5003;61051;62.624;17.950;2023-07-31T09:21:03;5;4;
72908;PMS5003;61051;62.624;17.950;2023-07-31T09:23:40;5;3;
72908;PMS5003;61051;62.624;17.950;2023-07-31T09:26:10;4;3;
72908;PMS5003;61051;62.624;17.950;2023-07-31T09:28:39;5;2;
72908;PMS5003;61051;62.624;17.950;2023-07-31T09:31:08;3;3;
72908;PMS5003;61051;62.624;17.950;2023-07-31T09:33:35;4;4;
72908;PMS5003;61051;62.624;17.950;2023-07-31T09:36:23;4;2;
72908;PMS5003;61051;62.624;17.950;2023-07-31T09:38:51;1;1;
72908;PMS5003;61051;62.624;17.950;2023-07-31T09:41:20;2;2;
72908;PMS5003;61051;62.624;17.950;2023-07-31T09:43:52;3;3;
72908;PMS5003;61051;62.624;17.950;2023-07-31T09:46:21;3;2;
72908;PMS5003;61051;62.624;17.950;2023-07-31T09:48:49;1;1;
72908;PMS5003;61051;62.624;17.950;2023-07-31T09:51:17;3;3;
72908;PMS5003;61051;62.624;17.950;2023-07-31T09:53:54;3;3;
72908;PMS5003;61051;62.624;17.950;2023-07-31T09:56:23;3;3;
72908;PMS5003;61051;62.624;17.950;2023-07-31T09:58:52;2;2;
72908;PMS5003;61051;62.624;17.950;2023-07-31T10:03:25;3;3;
72908;PMS5003;61051;62.624;17.950;2023-07-31T10:05:55;3;3;
72908;PMS5003;61051;62.624;17.950;2023-07-31T10:08:27;3;2;
72908;PMS5003;61051;62.624;17.950;2023-07-31T10:10:59;4;4;
72908;PMS5003;61051;62.624;17.950;2023-07-31T10:13:28;4;4;
72908;PMS5003;61051;62.624;17.950;2023-07-31T10:15:58;4;3;
72908;PMS5003;61051;62.624;17.950;2023-07-31T10:18:28;3;2;
72908;PMS5003;61051;62.624;17.950;2023-07-31T10:20:58;4;4;
72908;PMS5003;61051;62.624;17.950;2023-07-31T10:23:26;5;5;
72908;PMS5003;61051;62.624;17.950;2023-07-31T10:25:55;6;5;
72908;PMS5003;61051;62.624;17.950;2023-07-31T10:28:24;6;5;
72908;PMS5003;61051;62.624;17.950;2023-07-31T10:30:54;4;3;
72908;PMS5003;61051;62.624;17.950;2023-07-31T10:33:24;5;5;
72908;PMS5003;61051;62.624;17.950;2023-07-31T10:36:11;2;2;
72908;PMS5003;61051;62.624;17.950;2023-07-31T10:38:40;4;4;
72908;PMS5003;61051;62.624;17.950;2023-07-31T10:41:08;5;2;
72908;PMS5003;61051;62.624;17.950;2023-07-31T10:43:38;3;3;
72908;PMS5003;61051;62.624;17.950;2023-07-31T10:46:06;4;4;
72908;PMS5003;61051;62.624;17.950;2023-07-31T10:48:37;3;2;
72908;PMS5003;61051;62.624;17.950;2023-07-31T10:51:08;4;4;
72908;PMS5003;61051;62.624;17.950;2023-07-31T10:53:39;5;3;
72908;PMS5003;61051;62.624;17.950;2023-07-31T10:56:09;3;2;
72908;PMS5003;61051;62.624;17.950;2023-07-31T10:58:38;5;4;
72908;PMS5003;61051;62.624;17.950;2023-07-31T11:01:07;2;2;
72908;PMS5003;61051;62.624;17.950;2023-07-31T11:03:45;2;2;
72908;PMS5003;61051;62.624;17.950;2023-07-31T11:06:15;1;1;
72908;PMS5003;61051;62.624;17.950;2023-07-31T11:08:45;4;3;
72908;PMS5003;61051;62.624;17.950;2023-07-31T11:11:15;2;2;
72908;PMS5003;61051;62.624;17.950;2023-07-31T11:13:46;2;2;
72908;PMS5003;61051;62.624;17.950;2023-07-31T11:16:17;4;2;
72908;PMS5003;61051;62.624;17.950;2023-07-31T11:18:49;1;1;
72908;PMS5003;61051;62.624;17.950;2023-07-31T11:21:21;3;3;
72908;PMS5003;61051;62.624;17.950;2023-07-31T11:23:53;2;2;
72908;PMS5003;61051;62.624;17.950;2023-07-31T11:26:24;3;3;
72908;PMS5003;61051;62.624;17.950;2023-07-31T11:28:54;3;3;
72908;PMS5003;61051;62.624;17.950;2023-07-31T11:31:22;4;4;
72908;PMS5003;61051;62.624;17.950;2023-07-31T11:33:50;3;2;
72908;PMS5003;61051;62.624;17.950;2023-07-31T11:36:19;5;4;
72908;PMS5003;61051;62.624;17.950;2023-07-31T11:38:50;2;2;
72908;PMS5003;61051;62.624;17.950;2023-07-31T11:41:18;3;3;
72908;PMS5003;61051;62.624;17.950;2023-07-31T11:43:48;4;3;
72908;PMS5003;61051;62.624;17.950;2023-07-31T11:46:16;3;3;
72908;PMS5003;61051;62.624;17.950;2023-07-31T11:48:45;3;3;
72908;PMS5003;61051;62.624;17.950;2023-07-31T11:51:14;2;2;
72908;PMS5003;61051;62.624;17.950;2023-07-31T11:53:44;2;2;
72908;PMS5003;61051;62.624;17.950;2023-07-31T11:56:16;2;2;
72908;PMS5003;61051;62.624;17.950;2023-07-31T11:58:45;3;2;
72908;PMS5003;61051;62.624;17.950;2023-07-31T12:01:15;5;2;
72908;PMS5003;61051;62.624;17.950;2023-07-31T12:03:46;2;2;
72908;PMS5003;61051;62.624;17.950;2023-07-31T12:06:16;3;3;
72908;PMS5003;61051;62.624;17.950;2023-07-31T12:08:44;1;1;
72908;PMS5003;61051;62.624;17.950;2023-07-31T12:11:12;1;1;
72908;PMS5003;61051;62.624;17.950;2023-07-31T12:13:40;4;4;
72908;PMS5003;61051;62.624;17.950;2023-07-31T12:16:08;2;2;
72908;PMS5003;61051;62.624;17.950;2023-07-31T12:18:37;4;3;
72908;PMS5003;61051;62.624;17.950;2023-07-31T12:21:07;3;3;
72908;PMS5003;61051;62.624;17.950;2023-07-31T12:23:36;3;3;
72908;PMS5003;61051;62.624;17.950;2023-07-31T12:26:07;4;2;
72908;PMS5003;61051;62.624;17.950;2023-07-31T12:28:38;3;3;
72908;PMS5003;61051;62.624;17.950;2023-07-31T12:31:09;4;4;
72908;PMS5003;61051;62.624;17.950;2023-07-31T12:33:39;3;3;
72908;PMS5003;61051;62.624;17.950;2023-07-31T12:36:09;5;4;
72908;PMS5003;61051;62.624;17.950;2023-07-31T12:38:40;3;3;
72908;PMS5003;61051;62.624;17.950;2023-07-31T12:41:10;4;4;
72908;PMS5003;61051;62.624;17.950;2023-07-31T12:43:40;5;5;
72908;PMS5003;61051;62.624;17.950;2023-07-31T12:46:09;5;4;
72908;PMS5003;61051;62.624;17.950;2023-07-31T12:48:38;6;4;
72908;PMS5003;61051;62.624;17.950;2023-07-31T12:51:07;5;4;
72908;PMS5003;61051;62.624;17.950;2023-07-31T12:53:37;5;5;
72908;PMS5003;61051;62.624;17.950;2023-07-31T12:56:05;8;8;
72908;PMS5003;61051;62.624;17.950;2023-07-31T12:58:34;6;5;
72908;PMS5003;61051;62.624;17.950;2023-07-31T13:01:02;6;6;
72908;PMS5003;61051;62.624;17.950;2023-07-31T13:03:31;5;5;
72908;PMS5003;61051;62.624;17.950;2023-07-31T13:05:59;7;7;
72908;PMS5003;61051;62.624;17.950;2023-07-31T13:08:27;5;4;
72908;PMS5003;61051;62.624;17.950;2023-07-31T13:10:55;8;8;
72908;PMS5003;61051;62.624;17.950;2023-07-31T13:13:23;7;6;
72908;PMS5003;61051;62.624;17.950;2023-07-31T13:15:51;6;6;
72908;PMS5003;61051;62.624;17.950;2023-07-31T13:18:19;5;5;
72908;PMS5003;61051;62.624;17.950;2023-07-31T13:20:47;5;5;
72908;PMS5003;61051;62.624;17.950;2023-07-31T13:23:15;7;7;
72908;PMS5003;61051;62.624;17.950;2023-07-31T13:25:43;5;5;
72908;PMS5003;61051;62.624;17.950;2023-07-31T13:28:12;5;3;
72908;PMS5003;61051;62.624;17.950;2023-07-31T13:30:40;6;5;
72908;PMS5003;61051;62.624;17.950;2023-07-31T13:33:08;6;6;
72908;PMS5003;61051;62.624;17.950;2023-07-31T13:35:37;6;6;
72908;PMS5003;61051;62.624;17.950;2023-07-31T13:38:06;3;3;
72908;PMS5003;61051;62.624;17.950;2023-07-31T13:40:35;6;6;
72908;PMS5003;61051;62.624;17.950;2023-07-31T13:43:03;5;5;
72908;PMS5003;61051;62.624;17.950;2023-07-31T13:45:31;7;7;
72908;PMS5003;61051;62.624;17.950;2023-07-31T13:47:59;7;7;
72908;PMS5003;61051;62.624;17.950;2023-07-31T13:50:27;5;5;
72908;PMS5003;61051;62.624;17.950;2023-07-31T13:52:55;4;4;
72908;PMS5003;61051;62.624;17.950;2023-07-31T13:55:23;4;4;
72908;PMS5003;61051;62.624;17.950;2023-07-31T13:57:51;8;7;
72908;PMS5003;61051;62.624;17.950;2023-07-31T14:00:20;8;7;
72908;PMS5003;61051;62.624;17.950;2023-07-31T14:02:48;6;4;
72908;PMS5003;61051;62.624;17.950;2023-07-31T14:05:16;8;6;
72908;PMS5003;61051;62.624;17.950;2023-07-31T14:07:45;10;5;
72908;PMS5003;61051;62.624;17.950;2023-07-31T14:10:13;5;5;
72908;PMS5003;61051;62.624;17.950;2023-07-31T14:12:41;10;10;
72908;PMS5003;61051;62.624;17.950;2023-07-31T14:15:10;9;6;
72908;PMS5003;61051;62.624;17.950;2023-07-31T14:17:39;7;7;
72908;PMS5003;61051;62.624;17.950;2023-07-31T14:20:08;5;5;
72908;PMS5003;61051;62.624;17.950;2023-07-31T14:22:39;5;5;
72908;PMS5003;61051;62.624;17.950;2023-07-31T14:25:07;4;4;
72908;PMS5003;61051;62.624;17.950;2023-07-31T14:27:37;7;6;
72908;PMS5003;61051;62.624;17.950;2023-07-31T14:30:05;8;8;
72908;PMS5003;61051;62.624;17.950;2023-07-31T14:32:36;6;6;
72908;PMS5003;61051;62.624;17.950;2023-07-31T14:35:05;6;6;
72908;PMS5003;61051;62.624;17.950;2023-07-31T14:37:36;9;6;
72908;PMS5003;61051;62.624;17.950;2023-07-31T14:40:05;8;7;
72908;PMS5003;61051;62.624;17.950;2023-07-31T14:42:36;6;6;
72908;PMS5003;61051;62.624;17.950;2023-07-31T14:45:05;6;6;
72908;PMS5003;61051;62.624;17.950;2023-07-31T14:47:36;6;6;
72908;PMS5003;61051;62.624;17.950;2023-07-31T14:50:04;7;7;
72908;PMS5003;61051;62.624;17.950;2023-07-31T14:52:33;5;5;
72908;PMS5003;61051;62.624;17.950;2023-07-31T14:55:02;6;6;
72908;PMS5003;61051;62.624;17.950;2023-07-31T14:57:31;7;7;
72908;PMS5003;61051;62.624;17.950;2023-07-31T15:00:01;6;6;
72908;PMS5003;61051;62.624;17.950;2023-07-31T15:02:31;6;6;
72908;PMS5003;61051;62.624;17.950;2023-07-31T15:04:59;5;5;
72908;PMS5003;61051;62.624;17.950;2023-07-31T15:07:27;7;7;
72908;PMS5003;61051;62.624;17.950;2023-07-31T15:09:56;7;7;
72908;PMS5003;61051;62.624;17.950;2023-07-31T15:12:24;9;6;
72908;PMS5003;61051;62.624;17.950;2023-07-31T15:14:53;8;8;
72908;PMS5003;61051;62.624;17.950;2023-07-31T15:17:21;9;7;
72908;PMS5003;61051;62.624;17.950;2023-07-31T15:19:50;7;7;
72908;PMS5003;61051;62.624;17.950;2023-07-31T15:22:18;11;9;
72908;PMS5003;61051;62.624;17.950;2023-07-31T15:24:46;7;7;
72908;PMS5003;61051;62.624;17.950;2023-07-31T15:27:14;7;7;
72908;PMS5003;61051;62.624;17.950;2023-07-31T15:29:42;9;8;
72908;PMS5003;61051;62.624;17.950;2023-07-31T15:32:10;10;8;
72908;PMS5003;61051;62.624;17.950;2023-07-31T15:34:39;8;7;
72908;PMS5003;61051;62.624;17.950;2023-07-31T15:37:07;7;7;
72908;PMS5003;61051;62.624;17.950;2023-07-31T15:39:36;8;8;
72908;PMS5003;61051;62.624;17.950;2023-07-31T15:42:05;6;6;
72908;PMS5003;61051;62.624;17.950;2023-07-31T15:44:34;10;9;
72908;PMS5003;61051;62.624;17.950;2023-07-31T15:47:03;8;8;
72908;PMS5003;61051;62.624;17.950;2023-07-31T15:49:32;8;8;
72908;PMS5003;61051;62.624;17.950;2023-07-31T15:52:00;9;9;
72908;PMS5003;61051;62.624;17.950;2023-07-31T15:54:28;8;8;
72908;PMS5003;61051;62.624;17.950;2023-07-31T15:56:57;7;6;
72908;PMS5003;61051;62.624;17.950;2023-07-31T15:59:24;9;8;
72908;PMS5003;61051;62.624;17.950;2023-07-31T16:03:17;11;11;
72908;PMS5003;61051;62.624;17.950;2023-07-31T16:05:45;11;11;
72908;PMS5003;61051;62.624;17.950;2023-07-31T16:08:14;5;5;
72908;PMS5003;61051;62.624;17.950;2023-07-31T16:10:43;9;8;
72908;PMS5003;61051;62.624;17.950;2023-07-31T16:13:11;8;8;
72908;PMS5003;61051;62.624;17.950;2023-07-31T16:15:39;9;9;
72908;PMS5003;61051;62.624;17.950;2023-07-31T16:18:07;7;7;
72908;PMS5003;61051;62.624;17.950;2023-07-31T16:20:35;8;8;
72908;PMS5003;61051;62.624;17.950;2023-07-31T16:23:03;8;7;
72908;PMS5003;61051;62.624;17.950;2023-07-31T16:25:32;9;9;
72908;PMS5003;61051;62.624;17.950;2023-07-31T16:28:00;8;6;
72908;PMS5003;61051;62.624;17.950;2023-07-31T16:30:28;9;9;
72908;PMS5003;61051;62.624;17.950;2023-07-31T16:32:58;8;6;
72908;PMS5003;61051;62.624;17.950;2023-07-31T16:35:26;11;8;
72908;PMS5003;61051;62.624;17.950;2023-07-31T16:37:55;8;8;
72908;PMS5003;61051;62.624;17.950;2023-07-31T16:40:24;9;9;
72908;PMS5003;61051;62.624;17.950;2023-07-31T16:42:53;10;7;
72908;PMS5003;61051;62.624;17.950;2023-07-31T16:45:23;7;7;
72908;PMS5003;61051;62.624;17.950;2023-07-31T16:47:51;7;7;
72908;PMS5003;61051;62.624;17.950;2023-07-31T16:50:19;7;7;
72908;PMS5003;61051;62.624;17.950;2023-07-31T16:52:47;9;9;
72908;PMS5003;61051;62.624;17.950;2023-07-31T16:55:15;9;8;
72908;PMS5003;61051;62.624;17.950;2023-07-31T16:57:43;9;8;